createdAt,value
2018-12-16T00:01:00.517Z,26.90
2018-12-16T00:03:28.751Z,24.00
2018-12-16T00:05:56.929Z,23.23
2018-12-16T00:08:25.084Z,23.93
2018-12-16T00:10:53.255Z,25.83
2018-12-16T00:13:21.560Z,24.83
2018-12-16T00:15:49.733Z,29.00
2018-12-16T00:18:17.984Z,26.53
2018-12-16T00:20:46.187Z,29.83
2018-12-16T00:23:14.372Z,21.60
2018-12-16T00:25:42.535Z,26.50
2018-12-16T00:28:11.011Z,28.97
2018-12-16T00:30:39.214Z,26.37
2018-12-16T00:33:07.372Z,27.20
2018-12-16T00:35:35.525Z,25.43
2018-12-16T00:38:03.845Z,27.60
2018-12-16T00:40:31.987Z,27.00
2018-12-16T00:43:00.150Z,27.50
2018-12-16T00:45:28.383Z,28.37
2018-12-16T00:47:56.644Z,16.83
2018-12-16T00:50:24.803Z,27.50
2018-12-16T00:52:53.103Z,19.27
2018-12-16T00:55:21.368Z,27.20
2018-12-16T00:57:49.544Z,28.33
2018-12-16T01:00:17.799Z,26.40
2018-12-16T01:02:45.990Z,28.33
2018-12-16T01:05:14.543Z,29.13
2018-12-16T01:07:42.807Z,30.53
2018-12-16T01:10:11.531Z,18.80
2018-12-16T01:12:39.740Z,29.83
2018-12-16T01:15:08.195Z,30.37
2018-12-16T01:17:36.368Z,26.13
2018-12-16T01:20:05.919Z,28.60
2018-12-16T01:22:34.101Z,31.90
2018-12-16T01:25:02.274Z,29.43
2018-12-16T01:27:30.447Z,31.53
2018-12-16T01:29:58.616Z,24.80
2018-12-16T01:32:26.792Z,29.60
2018-12-16T01:34:54.956Z,34.07
2018-12-16T01:37:23.264Z,31.17
2018-12-16T01:39:51.431Z,30.37
2018-12-16T01:42:19.603Z,29.40
2018-12-16T01:44:47.768Z,33.30
2018-12-16T01:47:15.935Z,22.70
2018-12-16T01:49:44.212Z,28.50
2018-12-16T01:52:12.480Z,34.23
2018-12-16T01:54:40.657Z,33.07
2018-12-16T01:57:08.915Z,32.07
2018-12-16T01:59:37.091Z,29.63
2018-12-16T02:02:05.352Z,29.97
2018-12-16T02:04:33.537Z,32.00
2018-12-16T02:07:01.706Z,31.10
2018-12-16T02:09:29.899Z,31.83
2018-12-16T02:11:58.064Z,30.03
2018-12-16T02:14:29.899Z,29.23
2018-12-16T02:16:58.067Z,34.43
2018-12-16T02:19:26.644Z,36.30
2018-12-16T02:21:54.816Z,31.33
2018-12-16T02:24:22.991Z,28.67
2018-12-16T02:26:51.151Z,34.63
2018-12-16T02:29:19.324Z,33.80
2018-12-16T02:31:47.500Z,32.43
2018-12-16T02:34:15.695Z,34.43
2018-12-16T02:36:43.952Z,32.07
2018-12-16T02:39:12.127Z,33.57
2018-12-16T02:41:40.296Z,30.90
2018-12-16T02:44:08.566Z,33.13
2018-12-16T02:46:36.724Z,34.23
2018-12-16T02:49:04.939Z,33.00
2018-12-16T02:51:33.121Z,36.57
2018-12-16T02:54:01.380Z,33.53
2018-12-16T02:56:29.562Z,33.87
2018-12-16T02:58:57.730Z,31.87
2018-12-16T03:01:25.910Z,32.77
2018-12-16T03:03:54.171Z,36.90
2018-12-16T03:06:22.449Z,33.73
2018-12-16T03:08:50.616Z,32.00
2018-12-16T03:11:18.800Z,31.87
2018-12-16T03:13:46.963Z,32.90
2018-12-16T03:16:15.132Z,37.63
2018-12-16T03:18:43.300Z,35.50
2018-12-16T03:21:11.496Z,34.43
2018-12-16T03:23:39.867Z,38.07
2018-12-16T03:26:08.031Z,36.10
2018-12-16T03:28:36.244Z,40.30
2018-12-16T03:31:04.726Z,38.30
2018-12-16T03:33:32.944Z,38.20
2018-12-16T03:36:01.153Z,34.73
2018-12-16T03:38:29.317Z,34.27
2018-12-16T03:40:57.498Z,32.87
2018-12-16T03:43:25.659Z,28.80
2018-12-16T03:45:53.861Z,33.20
2018-12-16T03:48:22.224Z,33.63
2018-12-16T03:50:50.416Z,34.43
2018-12-16T03:53:19.988Z,35.50
2018-12-16T03:55:48.643Z,36.67
2018-12-16T03:58:16.790Z,35.67
2018-12-16T04:00:44.987Z,36.77
2018-12-16T04:03:13.135Z,36.27
2018-12-16T04:05:41.290Z,39.23
2018-12-16T04:08:09.468Z,34.93
2018-12-16T04:10:37.627Z,35.07
2018-12-16T04:13:05.889Z,33.03
2018-12-16T04:15:34.244Z,35.13
2018-12-16T04:18:02.405Z,37.57
2018-12-16T04:20:30.825Z,40.63
2018-12-16T04:22:58.988Z,35.63
2018-12-16T04:25:27.249Z,36.07
2018-12-16T04:27:55.404Z,37.23
2018-12-16T04:30:23.562Z,38.23
2018-12-16T04:32:51.812Z,37.90
2018-12-16T04:35:20.059Z,38.73
2018-12-16T04:37:48.216Z,33.50
2018-12-16T04:40:16.440Z,37.10
2018-12-16T04:42:44.610Z,39.87
2018-12-16T04:45:12.932Z,39.70
2018-12-16T04:47:41.087Z,42.23
2018-12-16T04:50:09.329Z,40.20
2018-12-16T04:52:37.588Z,38.87
2018-12-16T04:55:06.116Z,43.73
2018-12-16T04:57:34.282Z,46.50
2018-12-16T05:00:02.433Z,39.40
2018-12-16T05:02:30.600Z,39.33
2018-12-16T05:04:58.791Z,40.27
2018-12-16T05:07:26.984Z,38.63
2018-12-16T05:09:59.576Z,38.67
2018-12-16T05:12:27.782Z,38.67
2018-12-16T05:14:55.940Z,38.93
2018-12-16T05:17:24.100Z,35.73
2018-12-16T05:19:52.259Z,38.57
2018-12-16T05:22:20.412Z,38.33
2018-12-16T05:24:48.606Z,39.43
2018-12-16T05:27:16.748Z,38.50
2018-12-16T05:29:44.914Z,39.53
2018-12-16T05:32:13.059Z,39.17
2018-12-16T05:34:41.319Z,37.07
2018-12-16T05:37:09.469Z,39.73
2018-12-16T05:39:37.631Z,40.67
2018-12-16T05:42:05.787Z,40.60
2018-12-16T05:44:34.016Z,36.87
2018-12-16T05:47:02.165Z,40.27
2018-12-16T05:49:30.337Z,45.00
2018-12-16T05:51:58.501Z,41.87
2018-12-16T05:54:26.756Z,46.23
2018-12-16T05:56:54.911Z,40.70
2018-12-16T05:59:23.172Z,44.57
2018-12-16T06:01:51.344Z,43.27
2018-12-16T06:04:19.504Z,48.50
2018-12-16T06:06:47.665Z,45.77
2018-12-16T06:09:15.875Z,44.13
2018-12-16T06:11:44.023Z,46.43
2018-12-16T06:14:12.184Z,45.30
2018-12-16T06:16:40.482Z,53.27
2018-12-16T06:19:08.685Z,46.63
2018-12-16T06:21:36.923Z,46.93
2018-12-16T06:24:05.072Z,51.10
2018-12-16T06:26:33.232Z,46.80
2018-12-16T06:29:01.463Z,46.47
2018-12-16T06:31:29.627Z,47.90
2018-12-16T06:33:57.776Z,52.53
2018-12-16T06:36:25.936Z,53.70
2018-12-16T06:38:54.079Z,50.63
2018-12-16T06:41:22.240Z,54.13
2018-12-16T06:43:50.379Z,52.27
2018-12-16T06:46:18.535Z,54.83
2018-12-16T06:48:46.696Z,46.20
2018-12-16T06:51:14.878Z,46.17
2018-12-16T06:53:43.073Z,51.13
2018-12-16T06:56:11.265Z,51.40
2018-12-16T06:58:39.431Z,50.97
2018-12-16T07:01:07.600Z,49.63
2018-12-16T07:03:35.816Z,42.23
2018-12-16T07:06:03.987Z,52.63
2018-12-16T07:08:32.139Z,47.43
2018-12-16T07:11:00.399Z,48.10
2018-12-16T07:13:28.569Z,50.13
2018-12-16T07:15:56.865Z,50.10
2018-12-16T07:18:25.028Z,49.40
2018-12-16T07:20:53.348Z,54.03
2018-12-16T07:23:21.585Z,47.73
2018-12-16T07:25:49.856Z,44.97
2018-12-16T07:28:18.016Z,45.23
2018-12-16T07:30:46.427Z,45.77
2018-12-16T07:33:16.635Z,48.43
2018-12-16T07:35:45.068Z,51.63
2018-12-16T07:38:13.364Z,52.33
2018-12-16T07:40:41.848Z,54.17
2018-12-16T07:43:10.057Z,61.60
2018-12-16T07:45:38.286Z,52.13
2018-12-16T07:48:06.478Z,51.63
2018-12-16T07:50:34.731Z,63.73
2018-12-16T07:53:03.075Z,55.93
2018-12-16T07:55:31.224Z,62.03
2018-12-16T07:57:59.575Z,58.90
2018-12-16T08:00:27.840Z,52.67
2018-12-16T08:02:56.107Z,53.10
2018-12-16T08:05:24.292Z,59.60
2018-12-16T08:07:52.451Z,64.53
2018-12-16T08:10:20.604Z,62.23
2018-12-16T08:12:48.772Z,61.70
2018-12-16T08:15:16.980Z,63.87
2018-12-16T08:17:45.223Z,56.70
2018-12-16T08:20:13.615Z,60.17
2018-12-16T08:22:41.868Z,50.80
2018-12-16T08:25:10.239Z,56.33
2018-12-16T08:27:38.396Z,58.93
2018-12-16T08:30:07.852Z,56.53
2018-12-16T08:32:36.003Z,49.97
2018-12-16T08:35:04.677Z,49.83
2018-12-16T08:37:32.951Z,55.70
2018-12-16T08:40:01.195Z,55.53
2018-12-16T08:42:29.442Z,59.93
2018-12-16T08:44:57.612Z,56.10
2018-12-16T08:47:32.893Z,61.13
2018-12-16T08:49:55.919Z,55.83
2018-12-16T08:52:24.158Z,52.90
2018-12-16T08:54:52.438Z,54.07
2018-12-16T08:57:20.667Z,54.20
2018-12-16T08:59:48.864Z,45.77
2018-12-16T09:02:17.152Z,52.83
2018-12-16T09:04:45.321Z,38.37
2018-12-16T09:07:13.480Z,58.57
2018-12-16T09:09:42.038Z,58.80
2018-12-16T09:12:10.269Z,60.87
2018-12-16T09:14:38.560Z,60.50
2018-12-16T09:17:06.728Z,64.17
2018-12-16T09:19:35.009Z,57.97
2018-12-16T09:22:03.508Z,106.13
2018-12-16T09:24:37.215Z,88.67
2018-12-16T09:27:01.933Z,89.60
2018-12-16T09:29:30.102Z,63.80
2018-12-16T09:31:58.335Z,69.03
2018-12-16T09:34:26.627Z,62.80
2018-12-16T09:36:54.927Z,65.43
2018-12-16T09:39:23.300Z,61.10
2018-12-16T09:41:51.495Z,52.53
2018-12-16T09:44:19.688Z,58.90
2018-12-16T09:46:47.846Z,57.67
2018-12-16T09:49:16.050Z,52.67
2018-12-16T09:51:44.307Z,61.77
2018-12-16T09:54:12.552Z,59.53
2018-12-16T09:56:40.867Z,55.23
2018-12-16T09:59:09.149Z,60.83
2018-12-16T10:01:37.583Z,54.80
2018-12-16T10:04:05.847Z,50.80
2018-12-16T10:06:34.140Z,57.80
2018-12-16T10:09:02.356Z,51.13
2018-12-16T10:11:30.535Z,62.50
2018-12-16T10:13:58.699Z,57.37
2018-12-16T10:16:26.891Z,51.57
2018-12-16T10:18:55.152Z,56.77
2018-12-16T10:21:23.491Z,51.30
2018-12-16T10:23:51.768Z,60.73
2018-12-16T10:26:20.069Z,56.50
2018-12-16T10:28:48.303Z,57.50
2018-12-16T10:31:16.586Z,68.50
2018-12-16T10:33:45.936Z,61.93
2018-12-16T10:36:14.165Z,51.30
2018-12-16T10:38:42.561Z,61.57
2018-12-16T10:41:10.824Z,54.70
2018-12-16T10:43:39.229Z,65.87
2018-12-16T10:46:07.487Z,56.70
2018-12-16T10:48:35.703Z,59.50
2018-12-16T10:51:04.000Z,54.90
2018-12-16T10:53:32.435Z,57.83
2018-12-16T10:56:00.691Z,62.33
2018-12-16T10:58:28.963Z,64.03
2018-12-16T11:01:02.640Z,53.23
2018-12-16T11:03:30.999Z,61.03
2018-12-16T11:05:59.227Z,54.63
2018-12-16T11:08:27.879Z,49.23
2018-12-16T11:10:56.311Z,53.60
2018-12-16T11:13:24.527Z,48.77
2018-12-16T11:15:52.967Z,54.10
2018-12-16T11:18:21.191Z,51.20
2018-12-16T11:20:49.488Z,52.80
2018-12-16T11:23:17.886Z,57.53
2018-12-16T11:25:49.932Z,49.93
2018-12-16T11:28:18.195Z,53.20
2018-12-16T11:30:46.355Z,34.93
2018-12-16T11:33:14.578Z,60.27
2018-12-16T11:35:42.808Z,61.63
2018-12-16T11:38:11.036Z,58.83
2018-12-16T11:40:39.195Z,53.20
2018-12-16T11:43:07.574Z,53.10
2018-12-16T11:45:35.817Z,55.37
2018-12-16T11:48:04.116Z,63.40
2018-12-16T11:50:32.321Z,64.03
2018-12-16T11:53:00.736Z,64.33
2018-12-16T11:55:29.409Z,68.30
2018-12-16T11:57:57.665Z,71.53
2018-12-16T12:00:25.921Z,64.03
2018-12-16T12:02:54.108Z,49.43
2018-12-16T12:05:22.276Z,49.23
2018-12-16T12:07:50.463Z,54.47
2018-12-16T12:10:18.626Z,63.80
2018-12-16T12:12:46.808Z,83.57
2018-12-16T12:15:14.975Z,58.47
2018-12-16T12:17:43.268Z,53.40
2018-12-16T12:20:11.635Z,62.87
2018-12-16T12:22:40.100Z,55.03
2018-12-16T12:25:08.471Z,54.73
2018-12-16T12:27:36.735Z,56.27
2018-12-16T12:30:06.708Z,62.90
2018-12-16T12:32:35.189Z,55.77
2018-12-16T12:35:03.988Z,53.67
2018-12-16T12:37:32.236Z,55.23
2018-12-16T12:40:00.525Z,51.93
2018-12-16T12:42:28.748Z,55.90
2018-12-16T12:44:56.980Z,57.60
2018-12-16T12:47:25.252Z,59.43
2018-12-16T12:49:53.549Z,56.40
2018-12-16T12:52:21.760Z,55.30
2018-12-16T12:54:49.976Z,58.70
2018-12-16T12:57:18.253Z,54.53
2018-12-16T12:59:46.542Z,54.00
2018-12-16T13:02:14.923Z,54.33
2018-12-16T13:04:43.186Z,58.87
2018-12-16T13:07:11.356Z,56.00
2018-12-16T13:09:39.643Z,59.73
2018-12-16T13:12:07.805Z,56.63
2018-12-16T13:14:35.988Z,55.87
2018-12-16T13:17:04.260Z,56.13
2018-12-16T13:19:32.567Z,58.50
2018-12-16T13:22:00.729Z,55.43
2018-12-16T13:24:28.899Z,56.77
2018-12-16T13:26:57.356Z,70.50
2018-12-16T13:29:25.662Z,56.50
2018-12-16T13:31:54.488Z,54.87
2018-12-16T13:34:22.676Z,60.20
2018-12-16T13:36:50.900Z,62.27
2018-12-16T13:39:19.071Z,71.97
2018-12-16T13:41:47.242Z,61.23
2018-12-16T13:44:15.419Z,56.07
2018-12-16T13:46:43.604Z,53.90
2018-12-16T13:49:11.867Z,66.27
2018-12-16T13:51:40.248Z,63.17
2018-12-16T13:54:08.751Z,55.93
2018-12-16T13:56:37.936Z,73.20
2018-12-16T13:59:06.101Z,72.87
2018-12-16T14:01:34.279Z,68.57
2018-12-16T14:04:02.542Z,64.10
2018-12-16T14:06:30.796Z,167.07
2018-12-16T14:08:59.041Z,208.97
2018-12-16T14:11:27.273Z,104.33
2018-12-16T14:13:55.452Z,60.73
2018-12-16T14:16:24.080Z,94.43
2018-12-16T14:18:52.523Z,65.80
2018-12-16T14:21:21.390Z,70.43
2018-12-16T14:23:49.648Z,151.43
2018-12-16T14:26:17.881Z,105.73
2018-12-16T14:28:46.172Z,97.80
2018-12-16T14:31:14.342Z,96.97
2018-12-16T14:33:42.549Z,66.70
2018-12-16T14:36:10.888Z,121.43
2018-12-16T14:38:39.112Z,85.33
2018-12-16T14:41:07.277Z,65.57
2018-12-16T14:43:35.432Z,137.90
2018-12-16T14:46:03.735Z,114.97
2018-12-16T14:48:31.905Z,98.87
2018-12-16T14:51:00.086Z,141.63
2018-12-16T14:53:28.312Z,74.97
2018-12-16T14:55:56.723Z,81.57
2018-12-16T14:58:24.932Z,114.77
2018-12-16T15:00:53.245Z,96.53
2018-12-16T15:03:21.802Z,250.37
2018-12-16T15:05:50.013Z,83.93
2018-12-16T15:08:18.184Z,142.80
2018-12-16T15:10:46.408Z,130.40
2018-12-16T15:13:14.636Z,133.57
2018-12-16T15:15:42.899Z,122.83
2018-12-16T15:18:11.252Z,115.40
2018-12-16T15:20:39.559Z,100.93
2018-12-16T15:23:07.728Z,96.87
2018-12-16T15:25:36.065Z,62.23
2018-12-16T15:28:04.296Z,83.07
2018-12-16T15:30:32.472Z,75.37
2018-12-16T15:33:00.763Z,67.47
2018-12-16T15:35:28.927Z,68.33
2018-12-16T15:37:57.102Z,70.50
2018-12-16T15:40:25.278Z,59.50
2018-12-16T15:42:53.659Z,70.17
2018-12-16T15:45:21.877Z,64.27
2018-12-16T15:47:50.109Z,65.60
2018-12-16T15:50:18.417Z,69.07
2018-12-16T15:52:46.703Z,70.17
2018-12-16T15:55:14.956Z,61.20
2018-12-16T15:57:43.191Z,64.20
2018-12-16T16:00:12.204Z,64.80
2018-12-16T16:02:40.426Z,65.93
2018-12-16T16:05:08.763Z,57.80
2018-12-16T16:07:37.084Z,63.33
2018-12-16T16:10:06.156Z,68.17
2018-12-16T16:12:34.308Z,61.33
2018-12-16T16:15:02.547Z,73.17
2018-12-16T16:17:31.016Z,76.00
2018-12-16T16:19:59.255Z,70.70
2018-12-16T16:22:27.441Z,69.10
2018-12-16T16:24:55.705Z,62.33
2018-12-16T16:27:24.066Z,65.70
2018-12-16T16:29:52.350Z,70.73
2018-12-16T16:32:20.636Z,70.47
2018-12-16T16:34:48.804Z,70.07
2018-12-16T16:37:16.975Z,90.03
2018-12-16T16:39:45.140Z,78.63
2018-12-16T16:42:13.301Z,75.63
2018-12-16T16:44:41.503Z,76.60
2018-12-16T16:47:09.787Z,115.47
2018-12-16T16:49:37.963Z,89.87
2018-12-16T16:52:06.300Z,120.30
2018-12-16T16:54:34.548Z,102.93
2018-12-16T16:57:02.904Z,91.87
2018-12-16T16:59:31.075Z,99.50
2018-12-16T17:01:59.454Z,92.53
2018-12-16T17:04:27.615Z,75.87
2018-12-16T17:06:55.859Z,73.47
2018-12-16T17:09:24.084Z,74.87
2018-12-16T17:11:52.382Z,75.27
2018-12-16T17:14:20.540Z,69.43
2018-12-16T17:16:48.828Z,61.67
2018-12-16T17:19:17.328Z,72.07
2018-12-16T17:21:45.563Z,70.50
2018-12-16T17:24:13.723Z,68.27
2018-12-16T17:26:42.135Z,64.03
2018-12-16T17:29:10.287Z,75.30
2018-12-16T17:31:38.658Z,79.43
2018-12-16T17:34:06.950Z,85.40
2018-12-16T17:39:17.143Z,133.37
2018-12-16T17:41:45.320Z,154.77
2018-12-16T17:44:13.475Z,146.67
2018-12-16T17:46:41.655Z,114.50
2018-12-16T17:49:09.928Z,80.50
2018-12-16T17:51:38.307Z,95.00
2018-12-16T17:54:06.468Z,137.97
2018-12-16T17:56:37.235Z,127.43
2018-12-16T17:59:04.884Z,95.10
2018-12-16T18:01:33.157Z,109.17
2018-12-16T18:04:01.311Z,71.53
2018-12-16T18:06:29.483Z,69.90
2018-12-16T18:08:57.644Z,80.03
2018-12-16T18:11:25.968Z,84.83
2018-12-16T18:13:54.176Z,91.93
2018-12-16T18:16:22.408Z,118.03
2018-12-16T18:18:50.580Z,78.07
2018-12-16T18:21:18.767Z,78.63
2018-12-16T18:23:46.939Z,72.07
2018-12-16T18:26:15.118Z,78.47
2018-12-16T18:28:43.397Z,63.97
2018-12-16T18:31:11.669Z,65.60
2018-12-16T18:33:39.936Z,53.03
2018-12-16T18:36:08.220Z,74.07
2018-12-16T18:38:36.487Z,84.30
2018-12-16T18:41:04.895Z,81.50
2018-12-16T18:43:33.095Z,74.57
2018-12-16T18:46:01.277Z,69.73
2018-12-16T18:48:29.530Z,63.97
2018-12-16T18:50:57.680Z,54.77
2018-12-16T18:53:26.047Z,86.73
2018-12-16T18:55:54.211Z,71.63
2018-12-16T18:58:22.407Z,89.90
2018-12-16T19:00:50.795Z,80.93
2018-12-16T19:03:18.963Z,71.23
2018-12-16T19:05:47.235Z,72.30
2018-12-16T19:08:16.347Z,62.17
2018-12-16T19:10:44.707Z,76.43
2018-12-16T19:13:12.991Z,64.47
2018-12-16T19:15:41.151Z,66.27
2018-12-16T19:18:09.443Z,68.47
2018-12-16T19:20:37.787Z,73.83
2018-12-16T19:23:06.009Z,74.90
2018-12-16T19:25:34.164Z,59.03
2018-12-16T19:28:02.483Z,74.57
2018-12-16T19:30:30.728Z,66.93
2018-12-16T19:32:58.911Z,68.07
2018-12-16T19:35:27.068Z,84.93
2018-12-16T19:37:55.302Z,85.77
2018-12-16T19:40:23.533Z,68.57
2018-12-16T19:42:51.684Z,50.23
2018-12-16T19:45:19.852Z,64.23
2018-12-16T19:47:49.677Z,75.07
2018-12-16T19:50:17.988Z,61.23
2018-12-16T19:52:46.156Z,72.47
2018-12-16T19:55:15.167Z,67.20
2018-12-16T19:57:43.408Z,70.30
2018-12-16T20:00:11.840Z,61.63
2018-12-16T20:02:40.063Z,61.00
2018-12-16T20:05:13.058Z,70.57
2018-12-16T20:07:41.237Z,79.37
2018-12-16T20:10:09.632Z,86.47
2018-12-16T20:12:37.786Z,78.00
2018-12-16T20:15:06.768Z,65.73
2018-12-16T20:17:34.961Z,65.90
2018-12-16T20:20:03.367Z,69.50
2018-12-16T20:22:31.624Z,64.10
2018-12-16T20:24:59.791Z,67.03
2018-12-16T20:27:28.140Z,71.43
2018-12-16T20:29:56.472Z,69.80
2018-12-16T20:32:24.640Z,74.77
2018-12-16T20:34:52.820Z,64.80
2018-12-16T20:37:21.068Z,76.20
2018-12-16T20:39:49.348Z,87.73
2018-12-16T20:42:17.535Z,77.37
2018-12-16T20:44:45.728Z,75.67
2018-12-16T20:47:13.929Z,74.00
2018-12-16T20:49:42.095Z,78.00
2018-12-16T20:52:10.464Z,73.37
2018-12-16T20:54:38.696Z,108.70
2018-12-16T20:57:06.883Z,81.03
2018-12-16T20:59:35.053Z,111.10
2018-12-16T21:02:03.225Z,94.70
2018-12-16T21:04:31.404Z,94.73
2018-12-16T21:06:59.577Z,92.40
2018-12-16T21:09:27.734Z,90.57
2018-12-16T21:12:01.096Z,94.33
2018-12-16T21:14:35.205Z,111.57
2018-12-16T21:17:08.824Z,89.20
2018-12-16T21:19:37.228Z,85.37
2018-12-16T21:22:10.119Z,85.20
2018-12-16T21:24:38.285Z,84.13
2018-12-16T21:27:06.832Z,89.20
2018-12-16T21:29:35.180Z,82.77
2018-12-16T21:32:03.472Z,83.00
2018-12-16T21:34:31.671Z,83.70
2018-12-16T21:36:59.836Z,92.23
2018-12-16T21:39:28.007Z,290.70
2018-12-16T21:41:56.175Z,133.33
2018-12-16T21:44:24.447Z,166.50
2018-12-16T21:46:53.219Z,90.40
2018-12-16T21:49:21.377Z,78.37
2018-12-16T21:51:50.580Z,72.33
2018-12-16T21:54:18.759Z,61.60
2018-12-16T21:56:47.048Z,62.53
2018-12-16T21:59:15.325Z,66.73
2018-12-16T22:01:43.553Z,63.73
2018-12-16T22:04:11.718Z,63.30
2018-12-16T22:06:39.943Z,68.17
2018-12-16T22:09:08.641Z,63.67
2018-12-16T22:11:36.808Z,59.40
2018-12-16T22:14:05.104Z,73.83
2018-12-16T22:16:33.307Z,76.53
2018-12-16T22:19:01.539Z,69.70
2018-12-16T22:21:29.713Z,75.13
2018-12-16T22:23:57.888Z,81.63
2018-12-16T22:26:26.048Z,168.50
2018-12-16T22:28:54.247Z,68.87
2018-12-16T22:31:22.458Z,67.37
2018-12-16T22:33:50.798Z,69.27
2018-12-16T22:36:18.964Z,63.90
2018-12-16T22:38:47.147Z,58.70
2018-12-16T22:41:15.307Z,60.53
2018-12-16T22:43:43.883Z,66.50
2018-12-16T22:46:12.319Z,60.77
2018-12-16T22:48:42.269Z,64.53
2018-12-16T22:51:10.620Z,61.87
2018-12-16T22:53:38.801Z,60.83
2018-12-16T22:56:07.144Z,64.37
2018-12-16T22:58:35.327Z,59.53
2018-12-16T23:01:09.116Z,65.57
2018-12-16T23:03:37.501Z,62.77
2018-12-16T23:06:05.661Z,71.70
2018-12-16T23:08:33.815Z,72.00
2018-12-16T23:11:02.142Z,70.43
2018-12-16T23:13:30.507Z,68.63
2018-12-16T23:15:58.784Z,66.27
2018-12-16T23:18:26.955Z,61.13
2018-12-16T23:20:55.137Z,60.17
2018-12-16T23:23:23.379Z,66.13
2018-12-16T23:25:51.580Z,64.77
2018-12-16T23:28:20.032Z,64.57
2018-12-16T23:30:48.363Z,66.17
2018-12-16T23:33:16.572Z,83.10
2018-12-16T23:35:44.747Z,64.00
2018-12-16T23:38:12.960Z,66.30
2018-12-16T23:40:41.263Z,68.77
2018-12-16T23:43:09.419Z,74.77
2018-12-16T23:45:37.593Z,64.47
2018-12-16T23:48:05.745Z,66.10
2018-12-16T23:50:34.468Z,64.97
2018-12-16T23:53:02.676Z,87.23
2018-12-16T23:55:30.907Z,87.30
2018-12-16T23:58:01.235Z,84.63
